Time;durP1;ratioP1;P1;durP2;ratioP2;P2;SDS_P1;SDS_P2;PMS_P1;PMS_P2;Temp;Humidity;BMP_temperature;BMP_pressure;BME280_temperature;BME280_humidity;BME280_pressure;Samples;Min_cycle;Max_cycle;Signal;HPM_P1;HPM_P2
2022/05/03 00:01:05;;;;;;;6.90;3.87;;;;;;;14.79;59.13;98739.41;5131418;27;42726;-79
2022/05/03 00:03:40;;;;;;;5.07;4.23;;;;;;;14.70;59.17;98728.53;5133734;27;43466;-82
2022/05/03 00:06:19;;;;;;;5.27;4.77;;;;;;;14.81;58.76;98742.81;5130910;27;39917;-79
2022/05/03 00:08:53;;;;;;;5.10;4.60;;;;;;;14.79;59.00;98739.41;5131120;27;41818;-79
2022/05/03 00:11:29;;;;;;;5.40;4.90;;;;;;;14.80;59.07;98741.13;5116353;27;43024;-79
2022/05/03 00:14:08;;;;;;;4.93;4.30;;;;;;;14.65;59.18;98712.06;5130825;27;42446;-81
2022/05/03 00:16:38;;;;;;;4.83;4.13;;;;;;;14.80;58.81;98735.78;5133802;27;38665;-78
2022/05/03 00:19:07;;;;;;;4.53;3.83;;;;;;;14.79;58.84;98744.75;5115828;27;42360;-79
2022/05/03 00:21:36;;;;;;;4.40;3.67;;;;;;;14.76;58.83;98734.34;5115774;27;42990;-84
2022/05/03 00:24:05;;;;;;;4.77;3.70;;;;;;;14.74;59.06;98735.31;5116030;27;42512;-80
2022/05/03 00:26:34;;;;;;;4.50;3.60;;;;;;;14.73;58.97;98736.28;5134455;27;40094;-80
2022/05/03 00:29:04;;;;;;;4.37;3.97;;;;;;;14.71;59.04;98730.22;5132966;27;41775;-81
2022/05/03 00:31:32;;;;;;;4.53;4.07;;;;;;;14.70;58.98;98725.88;5116143;27;41585;-80
2022/05/03 00:34:01;;;;;;;4.40;4.00;;;;;;;14.68;58.99;98730.47;5133564;27;42401;-78
2022/05/03 00:36:28;;;;;;;4.30;3.90;;;;;;;14.65;58.79;98725.41;5133411;27;41872;-83
2022/05/03 00:38:56;;;;;;;6.00;4.50;;;;;;;14.64;59.02;98730.84;5132868;27;41813;-76
2022/05/03 00:41:36;;;;;;;5.80;5.00;;;;;;;14.60;59.07;98730.25;5133953;27;43887;-81
2022/05/03 00:47:10;;;;;;;5.07;4.17;;;;;;;14.53;60.15;98718.41;5134057;27;40901;-81
2022/05/03 00:49:46;;;;;;;4.53;3.90;;;;;;;14.49;60.11;98716.09;5095229;28;43204;-82
2022/05/03 00:52:24;;;;;;;4.13;3.80;;;;;;;14.44;60.14;98713.81;5096442;28;20206;-79
2022/05/03 00:55:06;;;;;;;3.53;3.23;;;;;;;14.40;60.26;98716.84;5112750;28;42154;-77
2022/05/03 00:57:41;;;;;;;3.47;3.17;;;;;;;14.31;60.01;98710.41;5112337;28;40356;-79
2022/05/03 01:00:14;;;;;;;4.17;3.63;;;;;;;14.27;59.94;98716.94;5095181;28;41584;-81
2022/05/03 01:02:58;;;;;;;6.13;3.63;;;;;;;14.18;60.06;98709.69;5110145;28;43722;-83
2022/05/03 01:05:28;;;;;;;3.97;3.67;;;;;;;14.18;60.13;98717.69;5094559;28;41513;-81
2022/05/03 01:08:05;;;;;;;4.90;3.33;;;;;;;14.12;60.00;98719.00;5112120;28;40171;-77
2022/05/03 01:10:35;;;;;;;3.87;3.57;;;;;;;14.06;60.50;98713.31;5095184;28;40582;-79
2022/05/03 01:13:04;;;;;;;4.37;3.87;;;;;;;14.00;60.77;98720.81;5112054;28;45106;-82
2022/05/03 01:15:35;;;;;;;7.97;4.47;;;;;;;13.93;60.63;98716.09;5094855;28;42742;-82
2022/05/03 01:18:24;;;;;;;4.43;4.03;;;;;;;13.86;61.23;98707.72;5112157;28;39743;-81
2022/05/03 01:21:03;;;;;;;6.03;5.43;;;;;;;13.80;61.41;98712.69;5094438;28;41930;-80
2022/05/03 01:24:02;;;;;;;5.13;4.63;;;;;;;13.74;61.81;98716.69;5109812;28;42864;-78
2022/05/03 01:27:10;;;;;;;5.23;4.73;;;;;;;13.68;61.77;98711.84;5094575;28;42408;-80
2022/05/03 01:29:45;;;;;;;5.07;4.57;;;;;;;13.63;61.94;98711.34;5108012;28;40888;-81
2022/05/03 01:32:20;;;;;;;4.70;4.30;;;;;;;13.59;61.37;98702.78;5094802;28;40680;-80
2022/05/03 01:34:48;;;;;;;4.73;4.33;;;;;;;13.56;61.14;98710.13;5094771;28;41747;-78
2022/05/03 01:37:34;;;;;;;5.17;4.43;;;;;;;13.55;61.49;98708.44;5094415;28;41244;-82
2022/05/03 01:40:07;;;;;;;6.93;5.37;;;;;;;13.54;61.29;98706.72;5094795;28;39161;-81
2022/05/03 01:43:09;;;;;;;4.40;4.00;;;;;;;13.54;61.87;98712.91;5110157;28;41770;-78
2022/05/03 01:45:44;;;;;;;5.30;4.17;;;;;;;13.55;61.54;98719.06;5096861;28;42680;-77
2022/05/03 01:48:24;;;;;;;3.97;3.57;;;;;;;13.53;61.06;98711.22;5109359;28;43070;-81
2022/05/03 01:50:58;;;;;;;5.03;4.10;;;;;;;13.56;61.48;98718.13;5111493;28;41485;-81
2022/05/03 01:53:32;;;;;;;4.27;3.87;;;;;;;13.56;61.02;98710.13;5109122;28;42707;-78
2022/05/03 01:56:23;;;;;;;5.70;4.20;;;;;;;13.55;61.74;98709.28;5108642;28;42955;-81
2022/05/03 01:59:04;;;;;;;5.27;4.20;;;;;;;13.56;61.35;98710.13;5110769;28;43020;-84
2022/05/03 02:01:53;;;;;;;4.17;3.77;;;;;;;13.57;61.34;98717.16;5109586;28;40030;-82
2022/05/03 02:04:48;;;;;;;4.00;3.70;;;;;;;13.55;61.10;98713.75;5109714;28;41689;-79
2022/05/03 02:07:31;;;;;;;5.90;4.27;;;;;;;13.52;61.01;98714.84;5094336;28;42069;-79
2022/05/03 02:10:06;;;;;;;4.30;3.77;;;;;;;13.49;60.57;98719.53;5111057;28;41118;-81
2022/05/03 02:12:34;;;;;;;4.77;4.33;;;;;;;13.43;60.82;98712.03;5109944;28;39363;-80
2022/05/03 02:15:06;;;;;;;4.17;3.77;;;;;;;13.37;60.58;98710.69;5093705;28;40469;-82
2022/05/03 02:18:00;;;;;;;4.13;3.43;;;;;;;13.29;60.67;98702.44;5096086;28;44493;-78
2022/05/03 02:20:58;;;;;;;2.87;2.67;;;;;;;13.28;60.74;98706.06;5114645;28;43326;-78
2022/05/03 02:23:39;;;;;;;3.80;3.40;;;;;;;13.23;60.71;98710.88;5114109;28;41906;-79
2022/05/03 02:26:19;;;;;;;3.80;3.47;;;;;;;13.18;60.87;98716.56;5114320;28;41963;-82
2022/05/03 02:28:49;;;;;;;3.40;3.10;;;;;;;13.14;60.79;98723.06;5113806;28;43414;-81
2022/05/03 02:31:23;;;;;;;3.27;2.97;;;;;;;13.10;60.85;98712.75;5113855;28;42655;-80
2022/05/03 02:34:02;;;;;;;3.93;3.53;;;;;;;13.05;61.29;98720.22;5112191;28;40004;-82
2022/05/03 02:36:36;;;;;;;3.43;3.13;;;;;;;12.61;61.30;98651.78;5111713;28;42716;-80
2022/05/03 02:39:05;;;;;;;3.43;3.13;;;;;;;12.90;61.35;98711.56;5112362;28;42704;-80
2022/05/03 02:41:38;;;;;;;2.80;2.60;;;;;;;12.84;61.72;98707.56;5114159;28;42769;-80
2022/05/03 02:44:06;;;;;;;4.47;4.07;;;;;;;12.80;62.94;98699.91;5096860;28;39208;-80
2022/05/03 02:46:52;;;;;;;4.23;3.83;;;;;;;12.75;63.60;98702.06;5113994;28;40837;-80
2022/05/03 02:49:30;;;;;;;5.17;4.67;;;;;;;12.71;63.61;98696.16;5115124;28;43730;-81
2022/05/03 02:52:10;;;;;;;6.93;5.27;;;;;;;12.68;63.61;98698.16;5110907;28;42776;-82
2022/05/03 02:54:49;;;;;;;3.93;3.53;;;;;;;12.64;64.02;98699.34;5096859;28;38800;-80
2022/05/03 02:57:26;;;;;;;5.57;4.90;;;;;;;12.59;64.12;98699.72;5112217;28;42777;-82
2022/05/03 03:02:59;;;;;;;4.47;4.03;;;;;;;12.53;63.64;98698.34;5111122;28;43198;-78
2022/05/03 03:05:31;;;;;;;4.47;3.90;;;;;;;12.48;63.33;98705.81;5114273;28;41539;-82
2022/05/03 03:08:02;;;;;;;4.43;3.30;;;;;;;12.44;63.38;98701.66;5113810;28;43116;-78
2022/05/03 03:10:33;;;;;;;4.17;3.77;;;;;;;12.39;63.42;98695.81;5109500;28;42924;-81
2022/05/03 03:13:10;;;;;;;3.90;3.50;;;;;;;12.26;63.37;98672.91;5076275;28;40876;-80
2022/05/03 03:15:40;;;;;;;4.20;3.80;;;;;;;12.33;63.54;98696.28;5091828;28;41628;-79
2022/05/03 03:18:14;;;;;;;5.03;3.73;;;;;;;12.29;63.51;98697.44;5094317;28;41719;-80
2022/05/03 03:20:46;;;;;;;4.87;3.50;;;;;;;12.26;63.42;98704.78;5107291;28;42572;-80
2022/05/03 03:23:18;;;;;;;5.50;4.33;;;;;;;12.22;63.80;98704.19;5109816;28;43064;-78
2022/05/03 03:25:48;;;;;;;4.80;4.40;;;;;;;12.17;63.80;98706.28;5113767;28;38827;-81
2022/05/03 03:28:20;;;;;;;5.07;4.53;;;;;;;12.12;64.81;98697.78;5113067;28;42527;-82
2022/05/03 03:30:49;;;;;;;4.33;3.93;;;;;;;12.04;64.86;98690.41;5096175;28;42618;-81
2022/05/03 03:33:19;;;;;;;4.80;4.40;;;;;;;12.07;65.84;98692.00;5092949;28;40814;-78
2022/05/03 03:35:49;;;;;;;5.67;4.70;;;;;;;12.05;65.54;98693.91;5094201;28;39972;-81
2022/05/03 03:38:17;;;;;;;5.60;4.77;;;;;;;12.00;65.59;98691.56;5113517;27;42551;-78
2022/05/03 03:40:46;;;;;;;5.50;4.20;;;;;;;11.97;65.59;98694.44;5113569;28;43073;-80
2022/05/03 03:43:15;;;;;;;5.07;4.47;;;;;;;11.91;65.50;98688.72;5095597;28;41006;-81
2022/05/03 03:45:42;;;;;;;4.77;4.37;;;;;;;11.91;65.97;98694.88;5113490;28;39053;-78
2022/05/03 03:48:11;;;;;;;5.17;4.37;;;;;;;11.86;66.27;98695.22;5114221;27;41976;-81
2022/05/03 03:50:39;;;;;;;5.27;4.70;;;;;;;11.70;65.79;98669.81;5113159;28;43710;-81
2022/05/03 03:53:08;;;;;;;4.97;4.20;;;;;;;11.80;65.80;98695.63;5114409;28;43296;-79
2022/05/03 03:55:36;;;;;;;6.10;4.87;;;;;;;11.77;65.96;98698.50;5113207;28;40987;-83
2022/05/03 03:58:05;;;;;;;5.17;4.60;;;;;;;11.76;65.92;98701.25;5103075;28;41848;-78
2022/05/03 04:00:33;;;;;;;5.40;4.50;;;;;;;11.74;66.16;98698.69;5093669;28;42780;-79
2022/05/03 04:03:02;;;;;;;5.10;4.40;;;;;;;11.72;66.11;98705.06;5075493;28;42635;-81
2022/05/03 04:05:32;;;;;;;5.10;4.57;;;;;;;11.68;66.32;98699.09;5092773;28;41648;-81
2022/05/03 04:08:00;;;;;;;5.43;4.47;;;;;;;11.67;66.20;98702.72;5075638;28;40855;-77
2022/05/03 04:10:29;;;;;;;4.57;4.17;;;;;;;11.65;66.94;98706.41;5106280;28;42775;-79
2022/05/03 04:12:57;;;;;;;5.37;4.87;;;;;;;11.64;67.53;98702.06;5114065;28;42031;-82
2022/05/03 04:15:26;;;;;;;4.60;4.20;;;;;;;11.62;67.08;98699.50;5113316;28;39967;-82
2022/05/03 04:17:54;;;;;;;9.27;5.40;;;;;;;11.59;67.40;98699.75;5095784;28;40852;-79
2022/05/03 04:20:22;;;;;;;4.50;4.10;;;;;;;11.53;66.88;98701.00;5095376;28;41738;-78
2022/05/03 04:22:50;;;;;;;4.73;4.23;;;;;;;11.57;66.99;98701.66;5107427;28;41157;-78
2022/05/03 04:25:17;;;;;;;5.80;4.20;;;;;;;11.56;66.62;98710.56;5104194;28;38929;-78
2022/05/03 04:27:46;;;;;;;5.13;4.23;;;;;;;11.57;66.93;98712.25;5108593;27;42701;-77
2022/05/03 04:30:14;;;;;;;5.77;4.07;;;;;;;11.56;67.04;98704.41;5112248;28;43701;-79
2022/05/03 04:32:43;;;;;;;4.83;4.20;;;;;;;11.56;66.79;98713.22;5112020;28;43385;-80
2022/05/03 04:35:11;;;;;;;5.33;4.50;;;;;;;11.58;66.81;98719.25;5111772;28;39821;-81
2022/05/03 04:37:38;;;;;;;4.37;3.83;;;;;;;11.14;66.71;98650.72;5112707;28;42283;-78
2022/05/03 04:40:07;;;;;;;4.13;3.73;;;;;;;11.54;66.46;98712.47;5106807;27;42857;-80
2022/05/03 04:42:35;;;;;;;4.70;4.20;;;;;;;11.58;66.46;98721.06;5096487;28;41171;-81
2022/05/03 04:45:05;;;;;;;4.97;4.00;;;;;;;11.55;66.32;98719.47;5110777;28;39013;-80
2022/05/03 04:47:32;;;;;;;4.30;3.90;;;;;;;11.59;66.03;98728.06;5112686;28;41961;-80
2022/05/03 04:50:00;;;;;;;6.10;5.37;;;;;;;11.59;66.46;98731.56;5098467;28;42864;-77
2022/05/03 04:52:29;;;;;;;5.07;4.40;;;;;;;11.58;66.41;98729.88;5074683;28;41202;-83
2022/05/03 04:54:57;;;;;;;4.17;3.77;;;;;;;11.51;66.42;98726.78;5110640;28;41124;-77
2022/05/03 04:57:24;;;;;;;4.10;3.77;;;;;;;11.61;66.33;98740.28;5111459;28;41727;-79
2022/05/03 04:59:52;;;;;;;4.50;4.10;;;;;;;11.64;66.49;98740.03;5091511;28;41445;-80
2022/05/03 05:02:21;;;;;;;4.33;3.93;;;;;;;11.68;66.07;98744.19;5112276;28;42711;-77
2022/05/03 05:04:48;;;;;;;3.97;3.57;;;;;;;11.67;65.84;98734.53;5111956;28;39951;-78
2022/05/03 05:07:16;;;;;;;4.43;4.03;;;;;;;11.74;65.79;98741.13;5108476;27;42884;-80
2022/05/03 05:12:25;;;;;;;4.80;4.20;;;;;;;11.92;65.75;98747.00;5107796;28;43142;-80
2022/05/03 05:14:53;;;;;;;3.87;3.50;;;;;;;12.02;65.69;98745.38;5110880;28;39342;-82
2022/05/03 05:17:22;;;;;;;3.90;3.60;;;;;;;12.05;65.09;98723.09;5111138;28;41763;-81
2022/05/03 05:19:49;;;;;;;4.80;3.60;;;;;;;12.29;64.80;98747.06;5111106;28;43025;-81
2022/05/03 05:22:17;;;;;;;4.43;3.90;;;;;;;12.45;64.98;98745.00;5111239;28;42259;-81
2022/05/03 05:24:44;;;;;;;4.10;3.73;;;;;;;12.62;65.12;98746.44;5093979;28;39292;-78
2022/05/03 05:27:11;;;;;;;6.30;4.20;;;;;;;12.79;65.98;98752.22;5110966;28;42394;-80
2022/05/03 05:29:39;;;;;;;4.87;4.37;;;;;;;12.93;66.55;98743.25;5110100;28;43796;-78
2022/05/03 05:32:07;;;;;;;5.17;4.67;;;;;;;13.07;66.04;98740.41;5107932;28;43375;-79
2022/05/03 05:34:36;;;;;;;6.97;4.90;;;;;;;13.25;66.55;98746.19;5110432;28;38535;-83
2022/05/03 05:37:04;;;;;;;5.40;4.90;;;;;;;13.23;65.90;98714.38;5100569;28;42694;-79
2022/05/03 05:39:32;;;;;;;5.83;4.80;;;;;;;13.55;66.08;98743.03;5108705;28;43541;-80
2022/05/03 05:42:01;;;;;;;5.53;4.90;;;;;;;13.69;66.54;98747.28;5093022;28;41798;-79
2022/05/03 05:44:29;;;;;;;6.80;5.70;;;;;;;13.80;65.96;98742.84;5110000;28;39922;-81
2022/05/03 05:46:57;;;;;;;5.50;4.87;;;;;;;13.85;65.76;98732.66;5110883;28;40705;-78
2022/05/03 05:49:24;;;;;;;6.30;5.70;;;;;;;14.05;65.20;98749.75;5090609;28;42869;-78
2022/05/03 05:53:31;;;;;;;5.50;5.00;;;;;;;14.15;64.57;98739.22;5115456;27;44219;-80
2022/05/03 05:54:40;;;;;;;5.47;4.97;;;;;;;14.47;64.93;98760.66;5110599;28;40069;-79
2022/05/03 05:57:08;;;;;;;6.77;6.03;;;;;;;14.60;64.54;98754.22;5117211;28;41764;-80
2022/05/03 05:59:35;;;;;;;6.67;6.07;;;;;;;14.77;64.07;98757.34;5096593;28;42008;-80
2022/05/03 06:02:03;;;;;;;6.63;5.93;;;;;;;14.91;63.57;98765.94;5099894;28;42042;-81
2022/05/03 06:04:33;;;;;;;8.63;6.90;;;;;;;15.04;63.69;98766.63;5095876;28;38984;-81
2022/05/03 06:07:02;;;;;;;6.60;6.00;;;;;;;15.21;63.15;98775.88;5111454;28;41814;-82
2022/05/03 06:09:29;;;;;;;7.43;6.20;;;;;;;15.33;62.97;98777.53;5116249;28;41593;-80
2022/05/03 06:11:57;;;;;;;7.57;5.83;;;;;;;15.38;61.86;98772.66;5118166;28;43357;-81
2022/05/03 06:14:25;;;;;;;6.80;6.10;;;;;;;15.61;61.56;98777.94;5096665;28;39000;-81
2022/05/03 06:16:54;;;;;;;6.67;6.07;;;;;;;15.75;61.58;98775.78;5123506;27;41847;-80
2022/05/03 06:19:23;;;;;;;7.17;6.47;;;;;;;15.90;61.03;98781.66;5119649;27;41947;-78
2022/05/03 06:21:51;;;;;;;7.57;6.30;;;;;;;16.04;60.41;98781.31;5118517;27;43217;-81
2022/05/03 06:24:20;;;;;;;5.90;5.30;;;;;;;16.16;60.24;98784.75;5117327;28;39123;-78
2022/05/03 06:26:48;;;;;;;7.43;5.67;;;;;;;16.36;59.62;98781.19;5118537;28;42706;-79
2022/05/03 06:29:16;;;;;;;6.33;5.60;;;;;;;16.50;58.87;98779.97;5094814;28;43799;-82
2022/05/03 06:31:44;;;;;;;6.90;5.50;;;;;;;16.58;59.09;98773.94;5102567;28;42189;-77
2022/05/03 06:34:12;;;;;;;7.30;6.60;;;;;;;16.81;58.23;98789.69;5112705;28;42716;-80
2022/05/03 06:36:39;;;;;;;7.83;6.20;;;;;;;16.95;58.19;98791.13;5134060;28;42916;-76
2022/05/03 06:39:07;;;;;;;6.77;6.17;;;;;;;17.01;57.57;98779.03;5132926;28;43113;-80
2022/05/03 06:41:36;;;;;;;7.23;6.17;;;;;;;17.27;57.69;98790.91;5116557;27;42166;-77
2022/05/03 06:44:04;;;;;;;7.23;6.00;;;;;;;17.15;57.15;98747.38;5116586;28;41837;-78
2022/05/03 06:46:32;;;;;;;6.80;6.20;;;;;;;17.59;56.46;98804.00;5114819;28;42044;-81
2022/05/03 06:48:59;;;;;;;6.90;5.83;;;;;;;17.69;55.88;98801.34;5116242;28;41872;-78
2022/05/03 06:51:27;;;;;;;8.33;6.33;;;;;;;17.78;55.26;98808.56;5116666;28;42495;-80
2022/05/03 06:53:56;;;;;;;7.23;6.53;;;;;;;17.79;55.10;98796.84;5117981;27;40495;-81
2022/05/03 06:56:24;;;;;;;6.63;5.93;;;;;;;17.95;54.91;98807.81;5116759;28;42363;-81
2022/05/03 06:58:53;;;;;;;8.20;6.53;;;;;;;18.05;54.79;98807.81;5099620;28;41782;-82
2022/05/03 07:01:20;;;;;;;8.50;6.57;;;;;;;18.07;54.61;98801.31;5116306;28;42606;-80
2022/05/03 07:03:48;;;;;;;9.13;6.63;;;;;;;18.21;54.60;98808.91;5095744;28;40007;-79
2022/05/03 07:06:21;;;;;;;8.57;6.50;;;;;;;18.34;54.13;98813.09;5112875;28;40379;-80
2022/05/03 07:08:48;;;;;;;7.80;7.00;;;;;;;18.48;53.74;98826.03;5092268;28;43276;-82
2022/05/03 07:11:16;;;;;;;6.77;6.17;;;;;;;18.54;53.59;98814.72;5110356;28;42257;-78
2022/05/03 07:13:44;;;;;;;6.90;6.27;;;;;;;18.72;53.98;98817.50;5079298;28;37861;-78
2022/05/03 07:16:13;;;;;;;6.20;5.60;;;;;;;18.82;53.20;98819.13;5103951;27;40599;-79
2022/05/03 07:24:10;;;;;;;6.70;6.00;;;;;;;19.19;52.33;98828.97;5111131;28;40889;-81
2022/05/03 07:26:38;;;;;;;6.80;6.20;;;;;;;19.13;51.92;98805.41;5112991;28;40758;-77
2022/05/03 07:29:07;;;;;;;8.87;6.47;;;;;;;18.98;51.38;98787.13;5117130;27;43004;-81
2022/05/03 07:31:36;;;;;;;8.43;6.50;;;;;;;19.39;51.27;98843.97;5097178;28;41345;-78
2022/05/03 07:34:03;;;;;;;6.83;6.17;;;;;;;19.42;51.22;98827.53;5095426;28;41724;-83
2022/05/03 07:36:31;;;;;;;6.93;6.00;;;;;;;19.61;50.77;98843.56;5112830;28;40584;-77
2022/05/03 07:38:58;;;;;;;6.93;6.10;;;;;;;19.66;50.39;98849.28;5095011;28;41649;-81
2022/05/03 07:41:26;;;;;;;7.13;5.33;;;;;;;19.73;50.48;98846.84;5089067;28;41929;-78
2022/05/03 07:43:54;;;;;;;6.83;6.00;;;;;;;19.77;50.46;98832.13;5110114;28;39960;-81
2022/05/03 07:46:21;;;;;;;6.93;6.20;;;;;;;19.98;50.64;98847.91;5110965;28;41678;-79
2022/05/03 07:48:50;;;;;;;6.30;5.57;;;;;;;20.06;50.04;98847.97;5107852;28;43358;-78
2022/05/03 07:51:19;;;;;;;6.70;6.10;;;;;;;20.10;50.11;98843.97;5110814;28;41333;-82
2022/05/03 07:53:47;;;;;;;6.90;6.20;;;;;;;20.17;50.00;98852.25;5096659;27;40879;-81
2022/05/03 07:56:14;;;;;;;7.27;6.50;;;;;;;20.17;48.63;98857.63;5110873;27;43905;-78
2022/05/03 07:58:42;;;;;;;8.30;6.33;;;;;;;20.13;48.43;98865.19;5093665;28;43239;-81
2022/05/03 08:01:09;;;;;;;8.63;6.10;;;;;;;20.18;48.99;98865.53;5112128;27;42951;-82
2022/05/03 08:03:37;;;;;;;6.87;5.90;;;;;;;20.28;49.27;98862.75;5110351;27;40379;-80
2022/05/03 08:06:06;;;;;;;6.93;5.73;;;;;;;20.42;49.24;98862.22;5112533;27;41708;-77
2022/05/03 08:08:34;;;;;;;7.50;6.63;;;;;;;20.50;48.14;98866.81;5113489;27;42848;-83
2022/05/03 08:11:01;;;;;;;8.13;6.30;;;;;;;20.62;47.74;98871.78;5110195;27;42338;-80
2022/05/03 08:13:29;;;;;;;6.33;5.73;;;;;;;20.85;48.47;98865.84;5091266;28;39870;-81
2022/05/03 08:15:57;;;;;;;6.23;5.63;;;;;;;21.12;47.54;98869.16;5088403;28;41708;-83
2022/05/03 08:18:24;;;;;;;6.60;5.90;;;;;;;21.43;47.38;98876.69;5108691;27;44782;-80
2022/05/03 08:20:53;;;;;;;6.93;5.70;;;;;;;21.76;47.51;98873.06;5097644;27;41583;-84
2022/05/03 08:23:22;;;;;;;6.07;5.57;;;;;;;22.05;46.60;98878.00;5111556;27;40832;-79
2022/05/03 08:25:50;;;;;;;7.00;5.80;;;;;;;22.32;45.82;98884.09;5114303;27;42187;-82
2022/05/03 08:28:17;;;;;;;7.00;6.30;;;;;;;22.93;44.85;98899.69;5110805;27;43451;-83
2022/05/03 08:30:45;;;;;;;7.33;5.37;;;;;;;23.28;44.61;98888.41;5114374;27;43321;-78
2022/05/03 08:33:12;;;;;;;7.13;6.43;;;;;;;23.56;44.32;98885.28;5091137;27;40790;-82
2022/05/03 08:35:40;;;;;;;7.03;5.67;;;;;;;24.19;42.40;98908.53;5111243;27;41994;-79
2022/05/03 08:43:40;;;;;;;6.27;5.40;;;;;;;25.19;40.31;98922.66;5092185;27;41196;-78
2022/05/03 08:46:09;;;;;;;6.83;5.77;;;;;;;25.30;40.04;98925.75;5111795;27;42672;-83
2022/05/03 08:48:41;;;;;;;6.67;5.97;;;;;;;25.28;38.53;98940.50;5092538;27;41729;-83
2022/05/03 08:51:14;;;;;;;4.90;4.43;;;;;;;25.09;38.82;98931.09;5109843;27;41056;-82
2022/05/03 08:53:42;;;;;;;4.20;3.90;;;;;;;24.95;39.65;98926.50;5094145;27;38918;-82
2022/05/03 08:56:11;;;;;;;5.00;4.60;;;;;;;24.79;38.66;98937.47;5095019;27;41145;-81
2022/05/03 08:58:39;;;;;;;4.97;4.43;;;;;;;24.57;38.66;98934.63;5109789;27;42845;-77
2022/05/03 09:01:07;;;;;;;4.80;4.40;;;;;;;24.36;39.32;98929.03;5109778;27;42515;-82
2022/05/03 09:03:34;;;;;;;5.07;4.57;;;;;;;24.36;39.87;98925.50;5110420;27;42527;-82
2022/05/03 09:06:04;;;;;;;4.50;4.10;;;;;;;24.44;40.35;98918.16;5110270;27;40788;-81
2022/05/03 09:08:33;;;;;;;4.10;3.70;;;;;;;24.66;40.17;98924.53;5089112;28;42814;-82
2022/05/03 09:11:15;;;;;;;4.40;4.00;;;;;;;25.07;38.89;98919.59;5088699;28;42649;-79
2022/05/03 09:13:44;;;;;;;5.27;4.13;;;;;;;25.51;38.28;98926.84;5107342;27;39736;-81
2022/05/03 09:16:13;;;;;;;4.57;4.10;;;;;;;25.95;37.68;98924.91;5111105;27;41958;-79
2022/05/03 09:18:42;;;;;;;4.57;4.17;;;;;;;26.56;36.33;98933.47;5091614;28;43627;-78
2022/05/03 09:24:11;;;;;;;4.97;3.80;;;;;;;28.33;34.50;98943.63;5092094;27;40835;-77
2022/05/03 09:26:40;;;;;;;4.03;3.73;;;;;;;29.78;31.21;98964.47;5107971;27;41864;-81
2022/05/03 09:29:09;;;;;;;4.73;4.33;;;;;;;30.14;30.38;98951.09;5106739;27;42859;-80
2022/05/03 09:31:39;;;;;;;4.67;4.30;;;;;;;30.19;30.75;98953.13;5109270;27;42518;-79
2022/05/03 09:34:19;;;;;;;4.90;4.50;;;;;;;30.28;29.23;98958.16;5109214;27;40041;-79
2022/05/03 09:36:48;;;;;;;5.07;4.57;;;;;;;30.25;29.15;98953.13;5101609;27;41697;-82
2022/05/03 09:39:23;;;;;;;5.87;5.37;;;;;;;30.36;30.40;98949.69;5108692;27;42559;-80
2022/05/03 09:42:09;;;;;;;5.93;5.40;;;;;;;30.10;30.81;98947.09;5108784;27;43022;-80
2022/05/03 09:44:40;;;;;;;5.17;4.67;;;;;;;29.75;31.60;98943.06;5109117;27;39998;-81
2022/05/03 09:47:10;;;;;;;5.73;5.17;;;;;;;29.52;31.28;98949.88;5101847;27;42649;-77
2022/05/03 09:49:40;;;;;;;5.60;5.10;;;;;;;30.20;30.84;98931.06;5111156;28;43662;-82
2022/05/03 09:52:14;;;;;;;5.60;5.10;;;;;;;31.91;29.23;98949.69;5089133;27;41365;-83
2022/05/03 09:54:48;;;;;;;5.97;5.47;;;;;;;33.24;27.13;98949.34;5109176;28;41821;-84
2022/05/03 09:57:23;;;;;;;5.07;4.57;;;;;;;33.77;26.57;98944.47;5111764;28;42645;-81
2022/05/03 09:59:51;;;;;;;5.27;4.73;;;;;;;33.65;27.06;98946.41;5109429;28;43260;-81
2022/05/03 10:02:21;;;;;;;5.90;5.40;;;;;;;32.78;27.29;98937.25;5109831;27;41527;-79
2022/05/03 10:04:50;;;;;;;5.63;4.93;;;;;;;31.91;28.95;98903.94;5093328;28;39717;-81
2022/05/03 10:07:18;;;;;;;5.23;4.83;;;;;;;31.80;29.25;98932.13;5093655;28;40755;-79
2022/05/03 10:09:46;;;;;;;5.57;5.07;;;;;;;31.67;29.66;98915.84;5111806;27;43701;-81
2022/05/03 10:12:15;;;;;;;5.23;4.83;;;;;;;31.57;28.98;98921.00;5124612;27;42890;-79
2022/05/03 10:14:46;;;;;;;6.37;4.73;;;;;;;31.54;29.11;98922.31;5110178;27;40077;-79
2022/05/03 10:22:58;;;;;;;5.87;5.27;;;;;;;32.75;27.30;98935.00;5064190;28;42482;-81
2022/05/03 10:25:30;;;;;;;5.10;4.70;;;;;;;33.85;26.17;98941.38;5106104;28;40403;-80
2022/05/03 10:27:59;;;;;;;6.73;6.13;;;;;;;34.39;24.74;98933.59;5076482;28;41425;-80
2022/05/03 10:30:28;;;;;;;5.90;5.40;;;;;;;34.92;24.60;98943.34;5109737;28;41897;-80
2022/05/03 10:33:36;;;;;;;5.67;4.73;;;;;;;35.24;24.59;98933.34;5110431;27;42946;-80
2022/05/03 10:36:24;;;;;;;4.10;3.80;;;;;;;35.34;22.34;98945.66;5089713;28;38757;-78
2022/05/03 10:38:52;;;;;;;4.30;4.00;;;;;;;34.98;24.34;98928.59;5087773;28;41295;-78
2022/05/03 10:41:24;;;;;;;6.67;3.87;;;;;;;34.71;24.26;98922.06;5114450;28;42727;-78
2022/05/03 10:43:52;;;;;;;4.53;4.20;;;;;;;34.97;23.17;98935.16;5095665;28;42928;-80
2022/05/03 10:46:23;;;;;;;3.90;3.60;;;;;;;35.38;22.94;98935.78;5112940;28;41562;-77
2022/05/03 10:49:13;;;;;;;4.40;3.87;;;;;;;35.50;22.44;98929.06;5112278;28;41984;-83
2022/05/03 10:51:42;;;;;;;3.83;3.53;;;;;;;35.58;21.64;98936.91;5113400;28;42980;-82
2022/05/03 10:54:11;;;;;;;3.97;3.67;;;;;;;35.67;22.65;98923.50;5112484;28;42539;-81
2022/05/03 10:57:04;;;;;;;4.67;4.27;;;;;;;36.12;21.44;98938.91;5114394;28;40268;-81
2022/05/03 10:59:47;;;;;;;4.00;3.57;;;;;;;35.72;21.39;98929.06;5092325;28;42713;-81
2022/05/03 11:02:16;;;;;;;3.97;3.67;;;;;;;35.14;22.28;98919.44;5110009;28;43849;-79
2022/05/03 11:05:13;;;;;;;3.87;3.57;;;;;;;34.56;22.28;98915.22;5113005;28;44296;-80
2022/05/03 11:07:41;;;;;;;3.77;3.47;;;;;;;34.45;21.94;98913.38;5113167;28;40037;-78
2022/05/03 11:10:42;;;;;;;5.70;3.80;;;;;;;35.61;20.98;98916.25;5095198;28;41727;-79
2022/05/03 11:13:41;;;;;;;3.80;3.50;;;;;;;36.86;20.51;98919.78;5088872;28;43789;-79
2022/05/03 11:16:25;;;;;;;3.75;3.40;;;;;;;38.42;20.02;98919.72;5042800;28;43161;-81
2022/05/03 11:18:56;;;;;;;3.65;3.42;;;;;;;39.07;18.26;98917.25;5103066;28;40093;-82
2022/05/03 11:21:23;;;;;;;4.85;3.90;;;;;;;39.29;17.22;98917.75;5096106;28;42355;-81
2022/05/03 11:23:52;;;;;;;3.35;3.13;;;;;;;38.61;17.00;98928.31;5114883;27;42830;-80
2022/05/03 11:26:21;;;;;;;4.07;3.78;;;;;;;37.72;20.35;98892.69;5109545;28;41216;-80
2022/05/03 11:28:50;;;;;;;3.40;2.93;;;;;;;37.22;18.29;98918.94;5111245;28;41308;-78
2022/05/03 11:31:19;;;;;;;3.63;3.13;;;;;;;36.90;19.03;98901.59;5090116;28;40586;-76
2022/05/03 11:33:58;;;;;;;3.17;2.97;;;;;;;36.82;19.21;98891.06;5093006;28;42737;-76
2022/05/03 11:36:27;;;;;;;3.83;3.27;;;;;;;36.52;20.47;98878.66;5109488;28;43082;-79
2022/05/03 11:38:56;;;;;;;3.87;3.57;;;;;;;36.04;19.00;98892.50;5112447;27;41195;-81
2022/05/03 11:41:25;;;;;;;3.70;3.43;;;;;;;35.83;21.78;98859.22;5112421;28;42743;-80
2022/05/03 11:43:53;;;;;;;3.30;3.10;;;;;;;35.75;21.85;98873.44;5109376;28;43702;-80
2022/05/03 11:46:22;;;;;;;3.10;2.90;;;;;;;35.81;21.12;98864.16;5112443;28;43146;-78
2022/05/03 11:48:53;;;;;;;3.00;2.80;;;;;;;35.97;20.13;98882.53;5112586;27;39687;-78
2022/05/03 11:57:07;;;;;;;3.58;3.38;;;;;;;39.10;17.10;98887.03;5112940;27;42368;-77
2022/05/03 11:59:34;;;;;;;3.72;3.42;;;;;;;39.99;16.04;98881.72;5092088;28;38877;-80
2022/05/03 12:02:17;;;;;;;3.17;2.97;;;;;;;41.13;14.96;98905.28;5098565;27;41905;-79
2022/05/03 12:05:18;;;;;;;5.35;3.00;;;;;;;42.20;14.53;98896.41;5104847;28;41513;-78
2022/05/03 12:07:50;;;;;;;3.28;3.08;;;;;;;43.27;13.28;98897.44;5110059;28;43299;-81
2022/05/03 12:10:20;;;;;;;2.70;2.60;;;;;;;43.87;12.20;98897.31;5112441;28;40471;-80
2022/05/03 12:13:03;;;;;;;3.13;2.92;;;;;;;44.03;12.50;98862.34;5113908;27;41591;-80
2022/05/03 12:15:31;;;;;;;3.97;3.58;;;;;;;44.62;11.91;98882.72;5091071;28;41628;-77
2022/05/03 12:18:02;;;;;;;3.13;2.83;;;;;;;44.96;11.70;98885.75;5078105;28;43742;-81
2022/05/03 12:20:41;;;;;;;3.80;2.40;;;;;;;45.34;11.74;98882.50;5112104;28;40677;-78
2022/05/03 12:23:16;;;;;;;2.38;2.17;;;;;;;45.56;11.34;98876.00;5109673;28;41481;-80
2022/05/03 12:25:45;;;;;;;2.40;2.30;;;;;;;45.92;11.08;98867.34;5094289;28;43426;-81
2022/05/03 12:28:12;;;;;;;2.60;2.40;;;;;;;45.94;11.30;98848.25;5111561;28;42443;-80
2022/05/03 12:30:40;;;;;;;2.80;2.60;;;;;;;46.17;12.21;98846.13;5112947;28;41333;-81